N828MW KPIE-KPIE
Flight info
| Callsign | N828MW |
|---|---|
| Flight time | N/A |
| Altitude | 1000 |
| Route | CIRCUITS |
| Aircraft | SR22/L-SDE/C |
Departure
| Time | 2026-04-17 20:17 |
|---|---|
| Airport | St. Petersburg Clearwater International Airport (KPIE) |
Arrival
| Time | N/A |
|---|---|
| Airport | St. Petersburg Clearwater International Airport (KPIE) |
| Time | Latitude | Longitude | Altitude | Speed | Heading |
|---|---|---|---|---|---|
| 2026-04-17 20:01 | 27.90475 | -82.68993 | 17 ft | 0 kts | 170° |
| 2026-04-17 20:12 | 27.90461 | -82.68950 | 17 ft | 11 kts | 96° |
| 2026-04-17 20:12 | 27.90384 | -82.68891 | 16 ft | 19 kts | 170° |
| 2026-04-17 20:12 | 27.90278 | -82.68872 | 16 ft | 9 kts | 169° |
| 2026-04-17 20:12 | 27.90196 | -82.68864 | 15 ft | 5 kts | 175° |
| 2026-04-17 20:13 | 27.90182 | -82.68862 | 15 ft | 5 kts | 172° |
| 2026-04-17 20:13 | 27.90180 | -82.68862 | 15 ft | 0 kts | 172° |
| 2026-04-17 20:13 | 27.90176 | -82.68861 | 15 ft | 0 kts | 175° |
| 2026-04-17 20:15 | 27.90174 | -82.68861 | 15 ft | 3 kts | 176° |
| 2026-04-17 20:15 | 27.90106 | -82.68855 | 12 ft | 11 kts | 146° |
| 2026-04-17 20:15 | 27.90119 | -82.68800 | 13 ft | 3 kts | 39° |
| 2026-04-17 20:16 | 27.90157 | -82.68769 | 15 ft | 33 kts | 36° |
| 2026-04-17 20:16 | 27.90513 | -82.68441 | 54 ft | 87 kts | 34° |
| 2026-04-17 20:16 | 27.91005 | -82.67957 | 179 ft | 98 kts | 34° |
| 2026-04-17 20:16 | 27.91536 | -82.67488 | 451 ft | 92 kts | 32° |
| 2026-04-17 20:17 | 27.91623 | -82.66797 | 673 ft | 105 kts | 127° |
| 2026-04-17 20:17 | 27.90978 | -82.66370 | 889 ft | 108 kts | 156° |
| 2026-04-17 20:17 | 27.90264 | -82.66273 | 1127 ft | 112 kts | 214° |
| 2026-04-17 20:17 | 27.89827 | -82.67027 | 1371 ft | 124 kts | 233° |
| 2026-04-17 20:18 | 27.89193 | -82.67620 | 1642 ft | 105 kts | 217° |
| 2026-04-17 20:18 | 27.88703 | -82.68261 | 1437 ft | 114 kts | 238° |
| 2026-04-17 20:18 | 27.88640 | -82.69127 | 1063 ft | 126 kts | 308° |
| 2026-04-17 20:18 | 27.89357 | -82.69358 | 488 ft | 113 kts | 17° |
| 2026-04-17 20:19 | 27.90019 | -82.68889 | 29 ft | 100 kts | 34° |
| 2026-04-17 20:19 | 27.90477 | -82.68472 | 19 ft | 82 kts | 38° |
| 2026-04-17 20:19 | 27.90987 | -82.68037 | 176 ft | 98 kts | 33° |
| 2026-04-17 20:19 | 27.91495 | -82.67537 | 532 ft | 95 kts | 53° |
| 2026-04-17 20:20 | 27.91392 | -82.66774 | 763 ft | 108 kts | 119° |
| 2026-04-17 20:20 | 27.90912 | -82.66142 | 1108 ft | 113 kts | 165° |
| 2026-04-17 20:20 | 27.90118 | -82.66242 | 1326 ft | 110 kts | 193° |
| 2026-04-17 20:20 | 27.89412 | -82.66431 | 1282 ft | 104 kts | 200° |
| 2026-04-17 20:21 | 27.88798 | -82.66891 | 1093 ft | 108 kts | 237° |
| 2026-04-17 20:21 | 27.88688 | -82.67750 | 893 ft | 111 kts | 261° |
| 2026-04-17 20:21 | 27.88627 | -82.68576 | 754 ft | 98 kts | 274° |
| 2026-04-17 20:21 | 27.88710 | -82.69311 | 603 ft | 88 kts | 278° |
| 2026-04-17 20:22 | 27.89044 | -82.69845 | 790 ft | 87 kts | 352° |
| 2026-04-17 20:22 | 27.89642 | -82.69536 | 1047 ft | 107 kts | 31° |
| 2026-04-17 20:22 | 27.90297 | -82.69043 | 1338 ft | 117 kts | 38° |
| 2026-04-17 20:22 | 27.90589 | -82.68201 | 1511 ft | 133 kts | 105° |
| 2026-04-17 20:23 | 27.90000 | -82.67447 | 1520 ft | 128 kts | 150° |
| 2026-04-17 20:23 | 27.89203 | -82.67546 | 1377 ft | 128 kts | 229° |
| 2026-04-17 20:23 | 27.88696 | -82.68360 | 1039 ft | 129 kts | 245° |
| 2026-04-17 20:23 | 27.88812 | -82.69149 | 672 ft | 110 kts | 339° |
| 2026-04-17 20:24 | 27.89500 | -82.69269 | 301 ft | 98 kts | 3° |
| 2026-04-17 20:24 | 27.90045 | -82.68862 | 20 ft | 88 kts | 33° |
| 2026-04-17 20:24 | 27.90491 | -82.68462 | 35 ft | 94 kts | 40° |
| 2026-04-17 20:24 | 27.91018 | -82.67903 | 292 ft | 108 kts | 36° |
| 2026-04-17 20:25 | 27.91494 | -82.67246 | 707 ft | 114 kts | 81° |
| 2026-04-17 20:25 | 27.91025 | -82.66445 | 885 ft | 132 kts | 143° |
| 2026-04-17 20:25 | 27.90217 | -82.66493 | 1260 ft | 126 kts | 207° |
| 2026-04-17 20:25 | 27.89469 | -82.67087 | 1446 ft | 131 kts | 219° |
| 2026-04-17 20:26 | 27.88811 | -82.67714 | 1401 ft | 121 kts | 221° |
| 2026-04-17 20:26 | 27.88215 | -82.68418 | 1103 ft | 127 kts | 243° |
| 2026-04-17 20:26 | 27.88356 | -82.69239 | 774 ft | 107 kts | 316° |
| 2026-04-17 20:26 | 27.89000 | -82.69449 | 440 ft | 95 kts | 358° |
| 2026-04-17 20:27 | 27.89616 | -82.69230 | 137 ft | 90 kts | 24° |
| 2026-04-17 20:27 | 27.90079 | -82.68831 | 18 ft | 74 kts | 32° |
| 2026-04-17 20:27 | 27.90473 | -82.68475 | 19 ft | 89 kts | 37° |
| 2026-04-17 20:27 | 27.90959 | -82.68012 | 221 ft | 97 kts | 32° |
| 2026-04-17 20:28 | 27.91475 | -82.67554 | 537 ft | 104 kts | 48° |
| 2026-04-17 20:28 | 27.91321 | -82.66755 | 795 ft | 124 kts | 138° |
| 2026-04-17 20:28 | 27.90521 | -82.66562 | 1151 ft | 120 kts | 209° |
| 2026-04-17 20:28 | 27.89930 | -82.67238 | 1472 ft | 123 kts | 221° |
| 2026-04-17 20:29 | 27.89234 | -82.67959 | 1455 ft | 136 kts | 224° |
| 2026-04-17 20:29 | 27.88588 | -82.68701 | 1263 ft | 129 kts | 222° |
| 2026-04-17 20:29 | 27.88308 | -82.69561 | 1019 ft | 125 kts | 296° |
| 2026-04-17 20:29 | 27.88929 | -82.69917 | 785 ft | 105 kts | 30° |
| 2026-04-17 20:30 | 27.90025 | -82.68882 | 21 ft | 81 kts | 32° |
| 2026-04-17 20:30 | 27.90414 | -82.68540 | 20 ft | 76 kts | 39° |
| 2026-04-17 20:30 | 27.90911 | -82.68050 | 191 ft | 103 kts | 33° |
| 2026-04-17 20:31 | 27.91445 | -82.67521 | 616 ft | 109 kts | 58° |
| 2026-04-17 20:31 | 27.91235 | -82.66717 | 934 ft | 120 kts | 142° |
| 2026-04-17 20:31 | 27.90466 | -82.66839 | 1238 ft | 121 kts | 224° |
| 2026-04-17 20:31 | 27.89909 | -82.67485 | 1337 ft | 113 kts | 224° |
| 2026-04-17 20:32 | 27.89299 | -82.68076 | 1186 ft | 122 kts | 214° |
| 2026-04-17 20:32 | 27.88758 | -82.68824 | 965 ft | 124 kts | 258° |
| 2026-04-17 20:32 | 27.89234 | -82.69440 | 521 ft | 114 kts | 15° |
| 2026-04-17 20:32 | 27.89889 | -82.68995 | 57 ft | 110 kts | 32° |
| 2026-04-17 20:33 | 27.90387 | -82.68550 | 19 ft | 75 kts | 34° |
| 2026-04-17 20:33 | 27.90890 | -82.68078 | 163 ft | 104 kts | 34° |
| 2026-04-17 20:33 | 27.91426 | -82.67548 | 601 ft | 104 kts | 48° |
| 2026-04-17 20:33 | 27.91261 | -82.66778 | 931 ft | 113 kts | 135° |
| 2026-04-17 20:34 | 27.90546 | -82.66730 | 1240 ft | 120 kts | 216° |
| 2026-04-17 20:34 | 27.89905 | -82.67370 | 1476 ft | 130 kts | 221° |
| 2026-04-17 20:34 | 27.89264 | -82.68016 | 1354 ft | 122 kts | 221° |
| 2026-04-17 20:34 | 27.88719 | -82.68634 | 1063 ft | 129 kts | 230° |
| 2026-04-17 20:35 | 27.88813 | -82.69443 | 544 ft | 121 kts | 344° |
| 2026-04-17 20:35 | 27.89089 | -82.69442 | 365 ft | 116 kts | 12° |